sensor_id;sensor_type;location;lat;lon;timestamp;P1;durP1;ratioP1;P2;durP2;ratioP2
27706;SDS011;36332;51.384;0.040;2023-08-06T00:00:48;5.90;;;3.33;;
27706;SDS011;36332;51.384;0.040;2023-08-06T00:03:15;6.68;;;4.10;;
27706;SDS011;36332;51.384;0.040;2023-08-06T00:05:43;6.28;;;2.92;;
27706;SDS011;36332;51.384;0.040;2023-08-06T00:08:11;6.75;;;3.25;;
27706;SDS011;36332;51.384;0.040;2023-08-06T00:10:39;12.10;;;3.67;;
27706;SDS011;36332;51.384;0.040;2023-08-06T00:13:08;7.90;;;3.45;;
27706;SDS011;36332;51.384;0.040;2023-08-06T00:15:36;8.70;;;3.58;;
27706;SDS011;36332;51.384;0.040;2023-08-06T00:18:04;5.68;;;3.10;;
27706;SDS011;36332;51.384;0.040;2023-08-06T00:20:32;7.82;;;3.25;;
27706;SDS011;36332;51.384;0.040;2023-08-06T00:22:59;7.55;;;2.95;;
27706;SDS011;36332;51.384;0.040;2023-08-06T00:25:27;6.82;;;3.55;;
27706;SDS011;36332;51.384;0.040;2023-08-06T00:27:55;13.50;;;3.72;;
27706;SDS011;36332;51.384;0.040;2023-08-06T00:30:23;11.57;;;3.90;;
27706;SDS011;36332;51.384;0.040;2023-08-06T00:32:51;11.20;;;3.13;;
27706;SDS011;36332;51.384;0.040;2023-08-06T00:35:19;7.53;;;2.97;;
27706;SDS011;36332;51.384;0.040;2023-08-06T00:37:46;6.93;;;3.65;;
27706;SDS011;36332;51.384;0.040;2023-08-06T00:40:14;7.63;;;3.53;;
27706;SDS011;36332;51.384;0.040;2023-08-06T00:42:42;11.32;;;3.15;;
27706;SDS011;36332;51.384;0.040;2023-08-06T00:45:12;5.35;;;3.25;;
27706;SDS011;36332;51.384;0.040;2023-08-06T00:47:39;13.55;;;3.25;;
27706;SDS011;36332;51.384;0.040;2023-08-06T00:50:08;6.75;;;2.92;;
27706;SDS011;36332;51.384;0.040;2023-08-06T00:52:36;8.07;;;2.90;;
27706;SDS011;36332;51.384;0.040;2023-08-06T00:55:05;11.88;;;3.10;;
27706;SDS011;36332;51.384;0.040;2023-08-06T00:57:34;8.50;;;3.33;;
27706;SDS011;36332;51.384;0.040;2023-08-06T01:00:02;11.40;;;3.30;;
27706;SDS011;36332;51.384;0.040;2023-08-06T01:02:31;7.63;;;2.55;;
27706;SDS011;36332;51.384;0.040;2023-08-06T01:04:59;7.72;;;3.08;;
27706;SDS011;36332;51.384;0.040;2023-08-06T01:07:37;12.27;;;3.28;;
27706;SDS011;36332;51.384;0.040;2023-08-06T01:10:16;7.15;;;2.88;;
27706;SDS011;36332;51.384;0.040;2023-08-06T01:13:01;6.03;;;2.63;;
27706;SDS011;36332;51.384;0.040;2023-08-06T01:15:44;7.28;;;3.33;;
27706;SDS011;36332;51.384;0.040;2023-08-06T01:18:16;8.88;;;3.47;;
27706;SDS011;36332;51.384;0.040;2023-08-06T01:20:45;14.68;;;3.50;;
27706;SDS011;36332;51.384;0.040;2023-08-06T01:23:13;8.52;;;3.35;;
27706;SDS011;36332;51.384;0.040;2023-08-06T01:25:54;9.27;;;3.08;;
27706;SDS011;36332;51.384;0.040;2023-08-06T01:30:59;9.18;;;3.90;;
27706;SDS011;36332;51.384;0.040;2023-08-06T01:33:30;9.18;;;4.10;;
27706;SDS011;36332;51.384;0.040;2023-08-06T01:36:00;5.32;;;3.20;;
27706;SDS011;36332;51.384;0.040;2023-08-06T01:38:31;8.15;;;3.58;;
27706;SDS011;36332;51.384;0.040;2023-08-06T01:40:59;8.45;;;3.60;;
27706;SDS011;36332;51.384;0.040;2023-08-06T01:43:27;10.93;;;3.80;;
27706;SDS011;36332;51.384;0.040;2023-08-06T01:45:55;7.72;;;3.63;;
27706;SDS011;36332;51.384;0.040;2023-08-06T01:48:24;11.48;;;4.30;;
27706;SDS011;36332;51.384;0.040;2023-08-06T01:50:52;11.48;;;4.13;;
27706;SDS011;36332;51.384;0.040;2023-08-06T01:53:20;13.65;;;4.07;;
27706;SDS011;36332;51.384;0.040;2023-08-06T01:55:48;9.25;;;4.18;;
27706;SDS011;36332;51.384;0.040;2023-08-06T01:58:17;11.27;;;4.47;;
27706;SDS011;36332;51.384;0.040;2023-08-06T02:00:45;16.10;;;4.60;;
27706;SDS011;36332;51.384;0.040;2023-08-06T02:03:13;13.90;;;4.93;;
27706;SDS011;36332;51.384;0.040;2023-08-06T02:05:42;13.20;;;4.22;;
27706;SDS011;36332;51.384;0.040;2023-08-06T02:08:10;12.63;;;4.95;;
27706;SDS011;36332;51.384;0.040;2023-08-06T02:10:38;15.23;;;5.80;;
27706;SDS011;36332;51.384;0.040;2023-08-06T02:13:07;15.60;;;4.60;;
27706;SDS011;36332;51.384;0.040;2023-08-06T02:15:34;11.02;;;4.78;;
27706;SDS011;36332;51.384;0.040;2023-08-06T02:18:03;15.73;;;4.28;;
27706;SDS011;36332;51.384;0.040;2023-08-06T02:20:33;10.65;;;4.40;;
27706;SDS011;36332;51.384;0.040;2023-08-06T02:23:01;10.02;;;4.45;;
27706;SDS011;36332;51.384;0.040;2023-08-06T02:25:29;15.23;;;4.75;;
27706;SDS011;36332;51.384;0.040;2023-08-06T02:27:59;15.75;;;4.57;;
27706;SDS011;36332;51.384;0.040;2023-08-06T02:30:27;7.70;;;3.97;;
27706;SDS011;36332;51.384;0.040;2023-08-06T02:32:55;8.90;;;4.22;;
27706;SDS011;36332;51.384;0.040;2023-08-06T02:35:23;9.50;;;4.20;;
27706;SDS011;36332;51.384;0.040;2023-08-06T02:37:51;11.07;;;4.68;;
27706;SDS011;36332;51.384;0.040;2023-08-06T02:40:19;8.30;;;4.15;;
27706;SDS011;36332;51.384;0.040;2023-08-06T02:42:47;10.82;;;4.60;;
27706;SDS011;36332;51.384;0.040;2023-08-06T02:45:15;12.27;;;4.38;;
27706;SDS011;36332;51.384;0.040;2023-08-06T02:47:44;12.80;;;5.05;;
27706;SDS011;36332;51.384;0.040;2023-08-06T02:50:12;9.93;;;4.53;;
27706;SDS011;36332;51.384;0.040;2023-08-06T02:52:39;8.98;;;4.85;;
27706;SDS011;36332;51.384;0.040;2023-08-06T02:55:09;8.45;;;4.20;;
27706;SDS011;36332;51.384;0.040;2023-08-06T02:57:42;9.07;;;4.55;;
27706;SDS011;36332;51.384;0.040;2023-08-06T03:00:10;16.05;;;4.72;;
27706;SDS011;36332;51.384;0.040;2023-08-06T03:02:39;10.82;;;4.40;;
27706;SDS011;36332;51.384;0.040;2023-08-06T03:05:20;15.20;;;4.60;;
27706;SDS011;36332;51.384;0.040;2023-08-06T03:07:49;7.53;;;4.03;;
27706;SDS011;36332;51.384;0.040;2023-08-06T03:10:27;15.02;;;5.00;;
27706;SDS011;36332;51.384;0.040;2023-08-06T03:12:58;13.35;;;5.20;;
27706;SDS011;36332;51.384;0.040;2023-08-06T03:15:27;5.43;;;4.15;;
27706;SDS011;36332;51.384;0.040;2023-08-06T03:17:56;7.53;;;3.88;;
27706;SDS011;36332;51.384;0.040;2023-08-06T03:20:25;8.43;;;3.90;;
27706;SDS011;36332;51.384;0.040;2023-08-06T03:22:53;10.68;;;4.22;;
27706;SDS011;36332;51.384;0.040;2023-08-06T03:25:22;8.60;;;3.90;;
27706;SDS011;36332;51.384;0.040;2023-08-06T03:27:50;6.70;;;4.15;;
27706;SDS011;36332;51.384;0.040;2023-08-06T03:30:19;8.38;;;4.05;;
27706;SDS011;36332;51.384;0.040;2023-08-06T03:32:48;8.50;;;3.53;;
27706;SDS011;36332;51.384;0.040;2023-08-06T03:35:19;12.75;;;3.95;;
27706;SDS011;36332;51.384;0.040;2023-08-06T03:37:47;14.85;;;4.47;;
27706;SDS011;36332;51.384;0.040;2023-08-06T03:40:16;12.35;;;4.47;;
27706;SDS011;36332;51.384;0.040;2023-08-06T03:42:45;11.57;;;4.35;;
27706;SDS011;36332;51.384;0.040;2023-08-06T03:45:14;13.68;;;4.68;;
27706;SDS011;36332;51.384;0.040;2023-08-06T03:47:43;12.20;;;4.22;;
27706;SDS011;36332;51.384;0.040;2023-08-06T03:50:11;7.50;;;3.85;;
27706;SDS011;36332;51.384;0.040;2023-08-06T03:52:39;11.23;;;4.35;;
27706;SDS011;36332;51.384;0.040;2023-08-06T03:55:07;17.05;;;4.75;;
27706;SDS011;36332;51.384;0.040;2023-08-06T03:57:36;13.00;;;4.07;;
27706;SDS011;36332;51.384;0.040;2023-08-06T04:00:04;13.43;;;4.97;;
27706;SDS011;36332;51.384;0.040;2023-08-06T04:02:40;10.30;;;4.65;;
27706;SDS011;36332;51.384;0.040;2023-08-06T04:05:12;8.23;;;3.75;;
27706;SDS011;36332;51.384;0.040;2023-08-06T04:07:40;8.93;;;4.07;;
27706;SDS011;36332;51.384;0.040;2023-08-06T04:10:08;8.65;;;3.78;;
27706;SDS011;36332;51.384;0.040;2023-08-06T04:12:36;13.38;;;4.45;;
27706;SDS011;36332;51.384;0.040;2023-08-06T04:15:06;10.23;;;4.40;;
27706;SDS011;36332;51.384;0.040;2023-08-06T04:17:34;10.85;;;4.13;;
27706;SDS011;36332;51.384;0.040;2023-08-06T04:20:04;9.35;;;3.67;;
27706;SDS011;36332;51.384;0.040;2023-08-06T04:22:32;7.47;;;4.53;;
27706;SDS011;36332;51.384;0.040;2023-08-06T04:25:00;7.78;;;4.07;;
27706;SDS011;36332;51.384;0.040;2023-08-06T04:27:28;10.93;;;4.38;;
27706;SDS011;36332;51.384;0.040;2023-08-06T04:29:56;10.85;;;3.85;;
27706;SDS011;36332;51.384;0.040;2023-08-06T04:32:25;8.88;;;3.90;;
27706;SDS011;36332;51.384;0.040;2023-08-06T04:34:55;10.32;;;5.10;;
27706;SDS011;36332;51.384;0.040;2023-08-06T04:37:24;8.15;;;4.25;;
27706;SDS011;36332;51.384;0.040;2023-08-06T04:39:52;6.97;;;3.65;;
27706;SDS011;36332;51.384;0.040;2023-08-06T04:42:20;8.32;;;4.47;;
27706;SDS011;36332;51.384;0.040;2023-08-06T04:44:49;17.80;;;4.70;;
27706;SDS011;36332;51.384;0.040;2023-08-06T04:47:17;11.98;;;4.53;;
27706;SDS011;36332;51.384;0.040;2023-08-06T04:49:45;11.88;;;4.55;;
27706;SDS011;36332;51.384;0.040;2023-08-06T04:52:13;10.80;;;5.78;;
27706;SDS011;36332;51.384;0.040;2023-08-06T04:54:41;8.18;;;3.78;;
27706;SDS011;36332;51.384;0.040;2023-08-06T04:57:08;6.55;;;4.03;;
27706;SDS011;36332;51.384;0.040;2023-08-06T04:59:36;9.95;;;4.47;;
27706;SDS011;36332;51.384;0.040;2023-08-06T05:02:04;8.63;;;4.13;;
27706;SDS011;36332;51.384;0.040;2023-08-06T05:04:33;7.85;;;4.22;;
27706;SDS011;36332;51.384;0.040;2023-08-06T05:07:00;9.30;;;4.18;;
27706;SDS011;36332;51.384;0.040;2023-08-06T05:09:28;8.52;;;4.82;;
27706;SDS011;36332;51.384;0.040;2023-08-06T05:11:56;11.30;;;4.32;;
27706;SDS011;36332;51.384;0.040;2023-08-06T05:14:24;13.07;;;5.45;;
27706;SDS011;36332;51.384;0.040;2023-08-06T05:16:52;8.48;;;4.43;;
27706;SDS011;36332;51.384;0.040;2023-08-06T05:19:20;10.18;;;4.75;;
27706;SDS011;36332;51.384;0.040;2023-08-06T05:21:48;8.75;;;4.18;;
27706;SDS011;36332;51.384;0.040;2023-08-06T05:24:16;6.93;;;4.22;;
27706;SDS011;36332;51.384;0.040;2023-08-06T05:26:46;11.23;;;4.35;;
27706;SDS011;36332;51.384;0.040;2023-08-06T05:29:16;9.27;;;4.57;;
27706;SDS011;36332;51.384;0.040;2023-08-06T05:31:43;6.45;;;3.70;;
27706;SDS011;36332;51.384;0.040;2023-08-06T05:34:11;11.15;;;4.10;;
27706;SDS011;36332;51.384;0.040;2023-08-06T05:36:39;10.93;;;4.32;;
27706;SDS011;36332;51.384;0.040;2023-08-06T05:39:07;8.27;;;5.07;;
27706;SDS011;36332;51.384;0.040;2023-08-06T05:41:35;8.93;;;4.45;;
27706;SDS011;36332;51.384;0.040;2023-08-06T05:44:03;10.98;;;4.13;;
27706;SDS011;36332;51.384;0.040;2023-08-06T05:46:31;13.93;;;4.45;;
27706;SDS011;36332;51.384;0.040;2023-08-06T05:48:59;9.00;;;4.47;;
27706;SDS011;36332;51.384;0.040;2023-08-06T05:51:27;10.82;;;4.78;;
27706;SDS011;36332;51.384;0.040;2023-08-06T05:53:56;12.65;;;4.43;;
27706;SDS011;36332;51.384;0.040;2023-08-06T05:56:23;12.27;;;4.35;;
27706;SDS011;36332;51.384;0.040;2023-08-06T05:58:51;12.00;;;4.53;;
27706;SDS011;36332;51.384;0.040;2023-08-06T06:01:20;8.52;;;4.30;;
27706;SDS011;36332;51.384;0.040;2023-08-06T06:03:48;8.63;;;4.47;;
27706;SDS011;36332;51.384;0.040;2023-08-06T06:06:16;10.55;;;4.38;;
27706;SDS011;36332;51.384;0.040;2023-08-06T06:08:45;9.57;;;4.22;;
27706;SDS011;36332;51.384;0.040;2023-08-06T06:11:12;9.27;;;4.10;;
27706;SDS011;36332;51.384;0.040;2023-08-06T06:13:40;9.10;;;4.32;;
27706;SDS011;36332;51.384;0.040;2023-08-06T06:16:08;11.73;;;4.03;;
27706;SDS011;36332;51.384;0.040;2023-08-06T06:18:36;6.93;;;3.75;;
27706;SDS011;36332;51.384;0.040;2023-08-06T06:21:04;10.57;;;4.20;;
27706;SDS011;36332;51.384;0.040;2023-08-06T06:23:31;11.85;;;4.20;;
27706;SDS011;36332;51.384;0.040;2023-08-06T06:25:59;8.60;;;3.80;;
27706;SDS011;36332;51.384;0.040;2023-08-06T06:28:27;10.80;;;4.05;;
27706;SDS011;36332;51.384;0.040;2023-08-06T06:30:59;9.77;;;3.67;;
27706;SDS011;36332;51.384;0.040;2023-08-06T06:33:28;8.45;;;3.65;;
27706;SDS011;36332;51.384;0.040;2023-08-06T06:35:55;9.55;;;4.18;;
27706;SDS011;36332;51.384;0.040;2023-08-06T06:38:23;8.45;;;4.05;;
27706;SDS011;36332;51.384;0.040;2023-08-06T06:40:55;7.80;;;4.72;;
27706;SDS011;36332;51.384;0.040;2023-08-06T06:43:23;10.77;;;3.80;;
27706;SDS011;36332;51.384;0.040;2023-08-06T06:45:52;6.70;;;4.32;;
27706;SDS011;36332;51.384;0.040;2023-08-06T06:48:21;10.90;;;3.90;;
27706;SDS011;36332;51.384;0.040;2023-08-06T06:50:49;6.72;;;3.80;;
27706;SDS011;36332;51.384;0.040;2023-08-06T06:53:16;6.10;;;3.50;;
27706;SDS011;36332;51.384;0.040;2023-08-06T06:55:44;5.65;;;3.45;;
27706;SDS011;36332;51.384;0.040;2023-08-06T06:58:15;6.45;;;3.80;;
27706;SDS011;36332;51.384;0.040;2023-08-06T07:00:43;6.93;;;3.95;;
27706;SDS011;36332;51.384;0.040;2023-08-06T07:03:11;6.63;;;3.55;;
27706;SDS011;36332;51.384;0.040;2023-08-06T07:05:39;9.45;;;3.40;;
27706;SDS011;36332;51.384;0.040;2023-08-06T07:08:07;10.15;;;3.47;;
27706;SDS011;36332;51.384;0.040;2023-08-06T07:10:35;7.43;;;3.45;;
27706;SDS011;36332;51.384;0.040;2023-08-06T07:13:03;7.78;;;3.35;;
27706;SDS011;36332;51.384;0.040;2023-08-06T07:15:31;12.52;;;3.65;;
27706;SDS011;36332;51.384;0.040;2023-08-06T07:17:59;6.68;;;3.40;;
27706;SDS011;36332;51.384;0.040;2023-08-06T07:20:27;6.38;;;3.65;;
27706;SDS011;36332;51.384;0.040;2023-08-06T07:22:58;7.55;;;3.67;;
27706;SDS011;36332;51.384;0.040;2023-08-06T07:25:26;8.88;;;3.00;;
27706;SDS011;36332;51.384;0.040;2023-08-06T07:27:54;8.95;;;3.58;;
27706;SDS011;36332;51.384;0.040;2023-08-06T07:30:23;4.35;;;2.85;;
27706;SDS011;36332;51.384;0.040;2023-08-06T07:32:52;5.43;;;2.95;;
27706;SDS011;36332;51.384;0.040;2023-08-06T07:35:19;5.50;;;3.75;;
27706;SDS011;36332;51.384;0.040;2023-08-06T07:37:48;5.28;;;2.80;;
27706;SDS011;36332;51.384;0.040;2023-08-06T07:40:15;9.65;;;2.88;;
27706;SDS011;36332;51.384;0.040;2023-08-06T07:42:43;7.72;;;3.67;;
27706;SDS011;36332;51.384;0.040;2023-08-06T07:45:12;7.28;;;3.38;;
27706;SDS011;36332;51.384;0.040;2023-08-06T07:47:40;6.72;;;3.13;;
27706;SDS011;36332;51.384;0.040;2023-08-06T07:50:08;7.22;;;3.35;;
27706;SDS011;36332;51.384;0.040;2023-08-06T07:52:36;7.70;;;4.25;;
27706;SDS011;36332;51.384;0.040;2023-08-06T07:55:04;6.57;;;3.75;;
27706;SDS011;36332;51.384;0.040;2023-08-06T07:57:33;7.40;;;3.42;;
27706;SDS011;36332;51.384;0.040;2023-08-06T08:00:01;5.20;;;2.83;;
27706;SDS011;36332;51.384;0.040;2023-08-06T08:02:38;9.50;;;3.20;;
27706;SDS011;36332;51.384;0.040;2023-08-06T08:05:06;6.65;;;3.00;;
27706;SDS011;36332;51.384;0.040;2023-08-06T08:07:35;5.70;;;2.85;;
27706;SDS011;36332;51.384;0.040;2023-08-06T08:10:02;6.15;;;2.70;;
27706;SDS011;36332;51.384;0.040;2023-08-06T08:12:32;3.17;;;2.30;;
27706;SDS011;36332;51.384;0.040;2023-08-06T08:15:00;6.07;;;2.60;;
27706;SDS011;36332;51.384;0.040;2023-08-06T08:17:27;8.25;;;3.13;;
27706;SDS011;36332;51.384;0.040;2023-08-06T08:19:55;9.55;;;3.63;;
27706;SDS011;36332;51.384;0.040;2023-08-06T08:22:23;5.40;;;2.75;;
27706;SDS011;36332;51.384;0.040;2023-08-06T08:24:51;5.32;;;2.67;;
27706;SDS011;36332;51.384;0.040;2023-08-06T08:27:19;4.28;;;2.30;;
27706;SDS011;36332;51.384;0.040;2023-08-06T08:29:47;4.43;;;2.58;;
27706;SDS011;36332;51.384;0.040;2023-08-06T08:32:15;5.63;;;2.67;;
27706;SDS011;36332;51.384;0.040;2023-08-06T08:34:43;3.50;;;2.55;;
27706;SDS011;36332;51.384;0.040;2023-08-06T08:37:12;5.47;;;2.60;;
27706;SDS011;36332;51.384;0.040;2023-08-06T08:39:40;4.50;;;2.63;;
27706;SDS011;36332;51.384;0.040;2023-08-06T08:42:08;19.55;;;3.42;;
27706;SDS011;36332;51.384;0.040;2023-08-06T08:44:38;4.03;;;2.78;;
27706;SDS011;36332;51.384;0.040;2023-08-06T08:47:07;3.13;;;2.45;;
27706;SDS011;36332;51.384;0.040;2023-08-06T08:49:37;6.90;;;3.17;;
27706;SDS011;36332;51.384;0.040;2023-08-06T08:52:05;5.78;;;2.63;;
27706;SDS011;36332;51.384;0.040;2023-08-06T08:54:33;3.08;;;1.90;;
27706;SDS011;36332;51.384;0.040;2023-08-06T08:57:02;6.13;;;2.42;;
27706;SDS011;36332;51.384;0.040;2023-08-06T08:59:30;4.18;;;2.13;;
27706;SDS011;36332;51.384;0.040;2023-08-06T09:02:00;3.70;;;2.28;;
27706;SDS011;36332;51.384;0.040;2023-08-06T09:04:29;4.03;;;2.10;;
27706;SDS011;36332;51.384;0.040;2023-08-06T09:07:02;6.75;;;2.15;;
27706;SDS011;36332;51.384;0.040;2023-08-06T09:09:32;2.45;;;2.00;;
27706;SDS011;36332;51.384;0.040;2023-08-06T09:12:06;4.28;;;2.45;;
27706;SDS011;36332;51.384;0.040;2023-08-06T09:14:39;6.88;;;2.22;;
27706;SDS011;36332;51.384;0.040;2023-08-06T09:17:08;3.40;;;2.03;;
27706;SDS011;36332;51.384;0.040;2023-08-06T09:19:42;5.30;;;2.00;;
27706;SDS011;36332;51.384;0.040;2023-08-06T09:22:13;5.38;;;2.45;;
27706;SDS011;36332;51.384;0.040;2023-08-06T09:24:41;5.05;;;2.00;;
27706;SDS011;36332;51.384;0.040;2023-08-06T09:27:13;4.57;;;2.15;;
27706;SDS011;36332;51.384;0.040;2023-08-06T09:29:42;4.80;;;1.85;;
27706;SDS011;36332;51.384;0.040;2023-08-06T09:32:13;5.93;;;2.22;;
27706;SDS011;36332;51.384;0.040;2023-08-06T09:34:42;5.05;;;1.90;;
27706;SDS011;36332;51.384;0.040;2023-08-06T09:37:10;5.03;;;2.05;;
27706;SDS011;36332;51.384;0.040;2023-08-06T09:39:38;4.18;;;2.42;;
27706;SDS011;36332;51.384;0.040;2023-08-06T09:42:08;3.45;;;2.10;;
27706;SDS011;36332;51.384;0.040;2023-08-06T09:44:36;4.20;;;2.30;;
27706;SDS011;36332;51.384;0.040;2023-08-06T09:47:05;2.83;;;2.15;;
27706;SDS011;36332;51.384;0.040;2023-08-06T09:52:10;3.67;;;2.03;;
27706;SDS011;36332;51.384;0.040;2023-08-06T09:54:39;3.55;;;2.30;;
27706;SDS011;36332;51.384;0.040;2023-08-06T09:57:08;3.25;;;2.15;;
27706;SDS011;36332;51.384;0.040;2023-08-06T09:59:36;5.07;;;2.60;;
27706;SDS011;36332;51.384;0.040;2023-08-06T10:02:13;2.45;;;1.55;;
27706;SDS011;36332;51.384;0.040;2023-08-06T10:04:42;4.30;;;2.30;;
27706;SDS011;36332;51.384;0.040;2023-08-06T10:07:21;5.75;;;2.08;;
27706;SDS011;36332;51.384;0.040;2023-08-06T10:09:51;3.17;;;2.05;;
27706;SDS011;36332;51.384;0.040;2023-08-06T10:12:19;2.97;;;1.27;;
27706;SDS011;36332;51.384;0.040;2023-08-06T10:14:46;2.35;;;1.85;;
27706;SDS011;36332;51.384;0.040;2023-08-06T10:17:17;5.05;;;2.17;;
27706;SDS011;36332;51.384;0.040;2023-08-06T10:19:45;3.13;;;1.70;;
27706;SDS011;36332;51.384;0.040;2023-08-06T10:22:14;4.03;;;2.45;;
27706;SDS011;36332;51.384;0.040;2023-08-06T10:27:27;2.95;;;1.80;;
27706;SDS011;36332;51.384;0.040;2023-08-06T10:33:03;2.90;;;1.95;;
27706;SDS011;36332;51.384;0.040;2023-08-06T10:38:15;3.47;;;2.33;;
27706;SDS011;36332;51.384;0.040;2023-08-06T10:46:01;2.38;;;1.50;;
27706;SDS011;36332;51.384;0.040;2023-08-06T10:48:41;3.10;;;1.45;;
27706;SDS011;36332;51.384;0.040;2023-08-06T10:51:09;2.38;;;1.70;;
27706;SDS011;36332;51.384;0.040;2023-08-06T10:53:42;3.50;;;1.92;;
27706;SDS011;36332;51.384;0.040;2023-08-06T10:56:17;4.03;;;2.20;;
27706;SDS011;36332;51.384;0.040;2023-08-06T10:58:46;5.18;;;2.25;;
27706;SDS011;36332;51.384;0.040;2023-08-06T11:01:14;3.00;;;1.92;;
27706;SDS011;36332;51.384;0.040;2023-08-06T11:03:44;3.80;;;2.42;;
27706;SDS011;36332;51.384;0.040;2023-08-06T11:06:17;5.70;;;2.00;;
27706;SDS011;36332;51.384;0.040;2023-08-06T11:08:50;3.28;;;2.40;;
27706;SDS011;36332;51.384;0.040;2023-08-06T11:11:18;5.03;;;2.33;;
27706;SDS011;36332;51.384;0.040;2023-08-06T11:13:48;8.02;;;2.80;;
27706;SDS011;36332;51.384;0.040;2023-08-06T11:16:17;5.70;;;2.10;;
27706;SDS011;36332;51.384;0.040;2023-08-06T11:18:46;5.85;;;3.28;;
27706;SDS011;36332;51.384;0.040;2023-08-06T11:21:14;5.13;;;3.47;;
27706;SDS011;36332;51.384;0.040;2023-08-06T11:23:46;9.45;;;4.50;;
27706;SDS011;36332;51.384;0.040;2023-08-06T11:26:18;4.57;;;2.53;;
27706;SDS011;36332;51.384;0.040;2023-08-06T11:28:47;5.13;;;3.20;;
27706;SDS011;36332;51.384;0.040;2023-08-06T11:31:21;6.75;;;4.47;;
27706;SDS011;36332;51.384;0.040;2023-08-06T11:33:53;11.07;;;5.72;;
27706;SDS011;36332;51.384;0.040;2023-08-06T11:36:31;10.68;;;4.75;;
27706;SDS011;36332;51.384;0.040;2023-08-06T11:39:00;9.10;;;3.78;;
27706;SDS011;36332;51.384;0.040;2023-08-06T11:41:30;6.55;;;4.00;;
27706;SDS011;36332;51.384;0.040;2023-08-06T11:43:59;4.70;;;3.03;;
27706;SDS011;36332;51.384;0.040;2023-08-06T11:46:26;6.65;;;2.72;;
27706;SDS011;36332;51.384;0.040;2023-08-06T11:48:55;5.20;;;2.58;;
27706;SDS011;36332;51.384;0.040;2023-08-06T11:51:24;4.93;;;2.78;;
27706;SDS011;36332;51.384;0.040;2023-08-06T11:53:55;6.35;;;3.03;;
27706;SDS011;36332;51.384;0.040;2023-08-06T11:56:24;7.50;;;3.53;;
27706;SDS011;36332;51.384;0.040;2023-08-06T11:58:55;3.53;;;2.40;;
27706;SDS011;36332;51.384;0.040;2023-08-06T12:01:23;7.43;;;2.60;;
27706;SDS011;36332;51.384;0.040;2023-08-06T12:03:51;4.40;;;2.13;;
27706;SDS011;36332;51.384;0.040;2023-08-06T12:06:19;6.15;;;2.60;;
27706;SDS011;36332;51.384;0.040;2023-08-06T12:08:48;4.80;;;2.40;;
27706;SDS011;36332;51.384;0.040;2023-08-06T12:11:20;3.78;;;2.50;;
27706;SDS011;36332;51.384;0.040;2023-08-06T12:16:34;5.18;;;2.17;;
27706;SDS011;36332;51.384;0.040;2023-08-06T12:19:03;2.33;;;1.80;;
27706;SDS011;36332;51.384;0.040;2023-08-06T12:21:31;5.25;;;2.33;;
27706;SDS011;36332;51.384;0.040;2023-08-06T12:23:59;4.43;;;2.22;;
27706;SDS011;36332;51.384;0.040;2023-08-06T12:26:27;3.78;;;2.63;;
27706;SDS011;36332;51.384;0.040;2023-08-06T12:28:54;4.95;;;2.20;;
27706;SDS011;36332;51.384;0.040;2023-08-06T12:31:24;3.42;;;2.35;;
27706;SDS011;36332;51.384;0.040;2023-08-06T12:33:52;4.03;;;1.92;;
27706;SDS011;36332;51.384;0.040;2023-08-06T12:36:20;3.28;;;2.38;;
27706;SDS011;36332;51.384;0.040;2023-08-06T12:38:49;3.22;;;2.10;;
27706;SDS011;36332;51.384;0.040;2023-08-06T12:41:17;3.08;;;2.38;;
27706;SDS011;36332;51.384;0.040;2023-08-06T12:43:45;5.20;;;2.55;;
27706;SDS011;36332;51.384;0.040;2023-08-06T12:46:13;3.80;;;2.00;;
27706;SDS011;36332;51.384;0.040;2023-08-06T12:48:41;2.60;;;1.63;;
27706;SDS011;36332;51.384;0.040;2023-08-06T12:51:08;1.95;;;1.50;;
27706;SDS011;36332;51.384;0.040;2023-08-06T12:53:37;2.88;;;1.70;;
27706;SDS011;36332;51.384;0.040;2023-08-06T12:56:05;4.82;;;1.60;;
27706;SDS011;36332;51.384;0.040;2023-08-06T12:58:33;4.93;;;2.17;;
27706;SDS011;36332;51.384;0.040;2023-08-06T13:01:02;3.75;;;2.13;;
27706;SDS011;36332;51.384;0.040;2023-08-06T13:03:30;5.30;;;2.20;;
27706;SDS011;36332;51.384;0.040;2023-08-06T13:05:59;3.60;;;2.03;;
27706;SDS011;36332;51.384;0.040;2023-08-06T13:08:27;2.63;;;1.95;;
27706;SDS011;36332;51.384;0.040;2023-08-06T13:10:55;2.78;;;1.70;;
27706;SDS011;36332;51.384;0.040;2023-08-06T13:13:23;2.78;;;1.92;;
27706;SDS011;36332;51.384;0.040;2023-08-06T13:15:54;3.28;;;2.03;;
27706;SDS011;36332;51.384;0.040;2023-08-06T13:18:22;4.07;;;1.98;;
27706;SDS011;36332;51.384;0.040;2023-08-06T13:20:51;3.10;;;2.00;;
27706;SDS011;36332;51.384;0.040;2023-08-06T13:23:21;2.67;;;1.85;;
27706;SDS011;36332;51.384;0.040;2023-08-06T13:25:49;2.47;;;1.92;;
27706;SDS011;36332;51.384;0.040;2023-08-06T13:28:18;2.67;;;1.92;;
27706;SDS011;36332;51.384;0.040;2023-08-06T13:30:45;5.15;;;2.72;;
27706;SDS011;36332;51.384;0.040;2023-08-06T13:33:13;3.70;;;2.22;;
27706;SDS011;36332;51.384;0.040;2023-08-06T13:35:41;4.28;;;2.13;;
27706;SDS011;36332;51.384;0.040;2023-08-06T13:38:09;4.50;;;2.20;;
27706;SDS011;36332;51.384;0.040;2023-08-06T13:40:37;2.97;;;2.42;;
27706;SDS011;36332;51.384;0.040;2023-08-06T13:43:05;5.15;;;2.60;;
27706;SDS011;36332;51.384;0.040;2023-08-06T13:45:33;4.15;;;2.50;;
27706;SDS011;36332;51.384;0.040;2023-08-06T13:48:02;4.30;;;2.72;;
27706;SDS011;36332;51.384;0.040;2023-08-06T13:50:31;4.22;;;2.92;;
27706;SDS011;36332;51.384;0.040;2023-08-06T13:52:59;5.90;;;2.75;;
27706;SDS011;36332;51.384;0.040;2023-08-06T13:55:27;3.65;;;2.63;;
27706;SDS011;36332;51.384;0.040;2023-08-06T13:57:55;4.85;;;2.60;;
27706;SDS011;36332;51.384;0.040;2023-08-06T14:00:23;3.47;;;2.55;;
27706;SDS011;36332;51.384;0.040;2023-08-06T14:02:51;3.78;;;2.00;;
27706;SDS011;36332;51.384;0.040;2023-08-06T14:05:19;5.20;;;2.10;;
27706;SDS011;36332;51.384;0.040;2023-08-06T14:07:47;4.68;;;2.40;;
27706;SDS011;36332;51.384;0.040;2023-08-06T14:10:15;5.90;;;2.08;;
27706;SDS011;36332;51.384;0.040;2023-08-06T14:12:42;3.45;;;2.05;;
27706;SDS011;36332;51.384;0.040;2023-08-06T14:15:23;2.13;;;1.70;;
27706;SDS011;36332;51.384;0.040;2023-08-06T14:17:51;4.05;;;1.70;;
27706;SDS011;36332;51.384;0.040;2023-08-06T14:20:19;2.28;;;1.40;;
27706;SDS011;36332;51.384;0.040;2023-08-06T14:22:47;4.05;;;1.55;;
27706;SDS011;36332;51.384;0.040;2023-08-06T14:25:15;2.33;;;2.13;;
27706;SDS011;36332;51.384;0.040;2023-08-06T14:27:43;3.30;;;1.70;;
27706;SDS011;36332;51.384;0.040;2023-08-06T14:30:11;1.85;;;1.55;;
27706;SDS011;36332;51.384;0.040;2023-08-06T14:32:39;2.28;;;1.30;;
27706;SDS011;36332;51.384;0.040;2023-08-06T14:35:07;3.03;;;1.55;;
27706;SDS011;36332;51.384;0.040;2023-08-06T14:37:35;2.00;;;1.17;;
27706;SDS011;36332;51.384;0.040;2023-08-06T14:40:03;2.28;;;1.52;;
27706;SDS011;36332;51.384;0.040;2023-08-06T14:42:31;2.28;;;1.70;;
27706;SDS011;36332;51.384;0.040;2023-08-06T14:44:59;2.65;;;1.40;;
27706;SDS011;36332;51.384;0.040;2023-08-06T14:47:27;5.05;;;1.70;;
27706;SDS011;36332;51.384;0.040;2023-08-06T14:49:55;2.58;;;1.50;;
27706;SDS011;36332;51.384;0.040;2023-08-06T14:52:23;3.75;;;2.25;;
27706;SDS011;36332;51.384;0.040;2023-08-06T14:54:51;3.17;;;1.65;;
27706;SDS011;36332;51.384;0.040;2023-08-06T14:57:22;2.17;;;1.80;;
27706;SDS011;36332;51.384;0.040;2023-08-06T14:59:54;3.78;;;1.45;;
27706;SDS011;36332;51.384;0.040;2023-08-06T15:02:22;1.58;;;1.45;;
27706;SDS011;36332;51.384;0.040;2023-08-06T15:04:51;1.92;;;1.45;;
27706;SDS011;36332;51.384;0.040;2023-08-06T15:07:19;1.58;;;1.25;;
27706;SDS011;36332;51.384;0.040;2023-08-06T15:09:47;1.75;;;1.38;;
27706;SDS011;36332;51.384;0.040;2023-08-06T15:12:35;2.58;;;1.48;;
27706;SDS011;36332;51.384;0.040;2023-08-06T15:15:03;2.40;;;1.20;;
27706;SDS011;36332;51.384;0.040;2023-08-06T15:17:32;1.63;;;1.35;;